createdAt,value
2022-10-21T00:02:17.472Z,101237.83
2022-10-21T00:04:45.174Z,101239.16
2022-10-21T00:07:12.810Z,101241.67
2022-10-21T00:09:40.483Z,101235.62
2022-10-21T00:12:08.084Z,101229.77
2022-10-21T00:14:35.732Z,101226.52
2022-10-21T00:17:03.410Z,101226.30
2022-10-21T00:19:31.035Z,101223.25
2022-10-21T00:21:58.664Z,101226.96
2022-10-21T00:24:26.367Z,101220.34
2022-10-21T00:26:56.369Z,101223.43
2022-10-21T00:29:24.081Z,101226.02
2022-10-21T00:31:55.082Z,101226.33
2022-10-21T00:34:25.861Z,101217.05
2022-10-21T00:36:56.366Z,101210.63
2022-10-21T00:39:24.055Z,101206.59
2022-10-21T00:41:51.687Z,101203.64
2022-10-21T00:44:19.368Z,101196.33
2022-10-21T00:46:52.286Z,101188.96
2022-10-21T00:49:41.110Z,101188.09
2022-10-21T00:52:12.084Z,101188.88
2022-10-21T00:54:41.009Z,101188.91
2022-10-21T00:57:08.962Z,101193.14
2022-10-21T00:59:40.827Z,101197.18
2022-10-21T01:02:08.803Z,101189.98
2022-10-21T01:04:36.644Z,101174.89
2022-10-21T01:07:04.377Z,101173.70
2022-10-21T01:09:32.752Z,101177.88
2022-10-21T01:12:02.197Z,101180.21
2022-10-21T01:14:55.353Z,101180.30
2022-10-21T01:17:44.846Z,101176.59
2022-10-21T01:20:22.594Z,101175.84
2022-10-21T01:23:08.768Z,101179.30
2022-10-21T01:25:45.444Z,101177.13
2022-10-21T01:28:16.144Z,101168.59
2022-10-21T01:30:47.804Z,101161.72
2022-10-21T01:33:27.569Z,101158.41
2022-10-21T01:35:55.186Z,101152.31
2022-10-21T01:38:29.046Z,101149.14
2022-10-21T01:41:04.294Z,101141.19
2022-10-21T01:43:44.191Z,101134.02
2022-10-21T01:46:29.712Z,101124.84
2022-10-21T01:49:01.774Z,101120.70
2022-10-21T01:51:30.296Z,101115.98
2022-10-21T01:54:02.725Z,101117.89
2022-10-21T01:56:31.553Z,101120.80
2022-10-21T01:59:00.552Z,101113.73
2022-10-21T02:01:28.720Z,101113.20
2022-10-21T02:03:58.984Z,101113.18
2022-10-21T02:06:26.748Z,101117.33
2022-10-21T02:08:54.546Z,101125.45
2022-10-21T02:11:22.890Z,101130.06
2022-10-21T02:14:02.845Z,101143.27
2022-10-21T02:16:32.978Z,101145.29
2022-10-21T02:19:01.578Z,101148.75
2022-10-21T02:21:32.109Z,101149.70
2022-10-21T02:24:20.002Z,101145.42
2022-10-21T02:26:47.740Z,101143.39
2022-10-21T02:29:20.690Z,101136.25
2022-10-21T02:32:01.276Z,101124.98
2022-10-21T02:34:47.897Z,101122.16
2022-10-21T02:37:27.224Z,101110.84
2022-10-21T02:40:02.117Z,101106.20
2022-10-21T02:42:32.884Z,101106.77
2022-10-21T02:45:01.430Z,101101.23
2022-10-21T02:47:29.752Z,101097.61
2022-10-21T02:49:57.537Z,101097.75
2022-10-21T02:52:25.264Z,101099.84
2022-10-21T02:54:52.960Z,101095.89
2022-10-21T02:57:20.602Z,101098.29
2022-10-21T02:59:48.205Z,101101.34
2022-10-21T03:02:15.820Z,101096.68
2022-10-21T03:04:43.836Z,101095.42
2022-10-21T03:07:11.506Z,101088.33
2022-10-21T03:09:39.201Z,101084.20
2022-10-21T03:12:06.870Z,101086.34
2022-10-21T03:14:34.595Z,101091.00
2022-10-21T03:17:02.298Z,101089.48
2022-10-21T03:19:29.921Z,101088.41
2022-10-21T03:21:57.578Z,101092.98
2022-10-21T03:24:28.757Z,101087.09
2022-10-21T03:26:56.827Z,101083.62
2022-10-21T03:29:24.590Z,101080.92
2022-10-21T03:31:52.233Z,101079.41
2022-10-21T03:34:20.190Z,101084.41
2022-10-21T03:36:48.193Z,101084.74
2022-10-21T03:39:15.948Z,101081.20
2022-10-21T03:41:43.783Z,101076.96
2022-10-21T03:44:11.569Z,101075.90
2022-10-21T03:46:39.593Z,101067.27
2022-10-21T03:49:11.989Z,101059.61
2022-10-21T03:51:43.410Z,101052.89
2022-10-21T03:54:11.180Z,101044.84
2022-10-21T03:56:39.086Z,101042.40
2022-10-21T03:59:06.721Z,101035.65
2022-10-21T04:01:34.436Z,101039.13
2022-10-21T04:04:02.209Z,101039.25
2022-10-21T04:06:29.885Z,101030.08
2022-10-21T04:08:57.778Z,101022.77
2022-10-21T04:11:25.581Z,101022.11
2022-10-21T04:13:53.349Z,101018.52
2022-10-21T04:16:21.982Z,101021.59
2022-10-21T04:18:49.660Z,101016.48
2022-10-21T04:21:17.359Z,101006.64
2022-10-21T04:23:45.114Z,101001.31
2022-10-21T04:26:12.791Z,100997.90
2022-10-21T04:28:40.414Z,100995.10
2022-10-21T04:31:08.095Z,100994.10
2022-10-21T04:33:35.781Z,100990.96
2022-10-21T04:36:03.588Z,100983.71
2022-10-21T04:38:31.682Z,100978.16
2022-10-21T04:41:00.902Z,100977.92
2022-10-21T04:43:29.097Z,100979.69
2022-10-21T04:45:56.782Z,100979.33
2022-10-21T04:48:24.518Z,100976.30
2022-10-21T04:50:53.105Z,100977.82
2022-10-21T04:53:21.804Z,100985.20
2022-10-21T04:55:53.385Z,100982.15
2022-10-21T04:58:22.387Z,100979.92
2022-10-21T05:00:51.311Z,100965.70
2022-10-21T05:03:19.773Z,100956.38
2022-10-21T05:05:50.981Z,100939.09
2022-10-21T05:08:19.533Z,100934.33
2022-10-21T05:10:47.222Z,100947.23
2022-10-21T05:13:15.857Z,100936.88
2022-10-21T05:15:43.545Z,100932.27
2022-10-21T05:18:11.260Z,100920.00
2022-10-21T05:20:38.885Z,100908.98
2022-10-21T05:23:07.868Z,100902.66
2022-10-21T05:25:35.600Z,100902.09
2022-10-21T05:28:03.352Z,100892.02
2022-10-21T05:30:31.068Z,100881.37
2022-10-21T05:32:58.821Z,100873.30
2022-10-21T05:35:26.465Z,100867.83
2022-10-21T05:37:54.145Z,100866.34
2022-10-21T05:40:22.121Z,100855.06
2022-10-21T05:42:49.852Z,100863.61
2022-10-21T05:45:17.507Z,100862.48
2022-10-21T05:47:45.173Z,100847.10
2022-10-21T05:50:13.113Z,100840.96
2022-10-21T05:52:41.297Z,100836.74
2022-10-21T05:55:09.959Z,100832.91
2022-10-21T05:57:38.481Z,100824.56
2022-10-21T06:00:06.523Z,100820.42
2022-10-21T06:02:34.151Z,100819.81
2022-10-21T06:05:01.911Z,100816.27
2022-10-21T06:07:29.933Z,100816.14
2022-10-21T06:09:57.601Z,100820.20
2022-10-21T06:12:25.427Z,100815.48
2022-10-21T06:14:53.223Z,100810.79
2022-10-21T06:17:21.376Z,100809.16
2022-10-21T06:19:51.022Z,100803.95
2022-10-21T06:22:18.965Z,100792.98
2022-10-21T06:24:47.270Z,100786.63
2022-10-21T06:27:15.109Z,100784.54
2022-10-21T06:29:42.757Z,100782.56
2022-10-21T06:32:10.487Z,100780.88
2022-10-21T06:34:38.542Z,100787.62
2022-10-21T06:37:06.179Z,100790.02
2022-10-21T06:39:33.841Z,100794.64
2022-10-21T06:42:01.792Z,100796.20
2022-10-21T06:44:42.133Z,100788.34
2022-10-21T06:47:09.759Z,100786.30
2022-10-21T06:49:37.530Z,100804.57
2022-10-21T06:52:05.245Z,100821.08
2022-10-21T06:54:32.964Z,100834.51
2022-10-21T06:57:00.690Z,100833.26
2022-10-21T06:59:28.367Z,100845.40
2022-10-21T07:02:00.166Z,100868.29
2022-10-21T07:04:29.102Z,100871.73
2022-10-21T07:06:56.820Z,100864.89
2022-10-21T07:09:24.568Z,100870.18
2022-10-21T07:11:52.457Z,100858.21
2022-10-21T07:14:20.191Z,100858.84
2022-10-21T07:16:48.348Z,100864.56
2022-10-21T07:19:15.987Z,100864.31
2022-10-21T07:21:44.675Z,100861.42
2022-10-21T07:24:12.930Z,100859.37
2022-10-21T07:26:40.633Z,100852.29
2022-10-21T07:29:08.293Z,100853.48
2022-10-21T07:31:37.098Z,100864.35
2022-10-21T07:36:39.934Z,100870.11
2022-10-21T07:39:09.474Z,100865.30
2022-10-21T07:41:41.920Z,100863.77
2022-10-21T07:44:10.079Z,100862.05
2022-10-21T07:46:39.037Z,100850.54
2022-10-21T07:49:07.602Z,100844.91
2022-10-21T07:51:35.277Z,100845.63
2022-10-21T07:54:04.225Z,100848.90
2022-10-21T07:56:33.910Z,100842.86
2022-10-21T07:59:02.366Z,100839.44
2022-10-21T08:01:30.896Z,100835.61
2022-10-21T08:03:58.737Z,100830.25
2022-10-21T08:06:26.984Z,100819.86
2022-10-21T08:08:57.503Z,100812.13
2022-10-21T08:11:26.569Z,100819.83
2022-10-21T08:13:54.539Z,100828.23
2022-10-21T08:16:22.266Z,100827.95
2022-10-21T08:18:50.513Z,100825.50
2022-10-21T08:21:18.157Z,100825.26
2022-10-21T08:23:46.474Z,100823.63
2022-10-21T08:26:15.440Z,100815.66
2022-10-21T08:28:43.344Z,100811.58
2022-10-21T08:31:15.907Z,100813.59
2022-10-21T08:33:44.680Z,100813.95
2022-10-21T08:36:13.932Z,100816.23
2022-10-21T08:38:41.969Z,100817.20
2022-10-21T08:41:28.699Z,100822.61
2022-10-21T08:44:00.414Z,100817.02
2022-10-21T08:46:35.554Z,100820.00
2022-10-21T08:49:07.456Z,100813.88
2022-10-21T08:51:38.121Z,100806.40
2022-10-21T08:54:06.885Z,100803.23
2022-10-21T08:56:34.538Z,100801.73
2022-10-21T08:59:02.434Z,100792.95
2022-10-21T09:01:59.954Z,100779.73
2022-10-21T09:04:41.308Z,100773.77
2022-10-21T09:07:16.023Z,100770.27
2022-10-21T09:10:03.941Z,100766.61
2022-10-21T09:12:53.634Z,100765.08
2022-10-21T09:15:31.741Z,100770.77
2022-10-21T09:18:14.908Z,100778.86
2022-10-21T09:20:45.797Z,100782.24
2022-10-21T09:23:25.848Z,100779.55
2022-10-21T09:25:59.841Z,100772.89
2022-10-21T09:28:29.013Z,100767.28
2022-10-21T09:31:00.249Z,100762.88
2022-10-21T09:33:36.998Z,100757.08
2022-10-21T09:36:25.058Z,100755.81
2022-10-21T09:38:58.239Z,100769.05
2022-10-21T09:41:42.878Z,100761.23
2022-10-21T09:44:16.614Z,100758.39
2022-10-21T09:46:48.203Z,100759.92
2022-10-21T09:49:54.758Z,100761.88
2022-10-21T09:52:15.129Z,100757.90
2022-10-21T09:54:43.242Z,100751.60
2022-10-21T09:57:17.013Z,100751.03
2022-10-21T09:59:51.925Z,100741.15
2022-10-21T10:02:24.523Z,100731.17
2022-10-21T10:04:52.331Z,100725.25
2022-10-21T10:07:26.498Z,100722.10
2022-10-21T10:09:54.340Z,100716.91
2022-10-21T10:12:23.886Z,100713.80
2022-10-21T10:14:51.616Z,100714.45
2022-10-21T10:17:25.742Z,100706.20
2022-10-21T10:20:05.857Z,100694.10
2022-10-21T10:22:38.181Z,100689.40
2022-10-21T10:25:17.021Z,100684.96
2022-10-21T10:27:47.571Z,100680.91
2022-10-21T10:30:15.690Z,100686.04
2022-10-21T10:32:44.158Z,100686.81
2022-10-21T10:35:38.175Z,100685.44
2022-10-21T10:38:06.617Z,100689.23
2022-10-21T10:40:42.006Z,100698.33
2022-10-21T10:43:23.441Z,100700.84
2022-10-21T10:45:53.809Z,100693.71
2022-10-21T10:48:24.312Z,100692.91
2022-10-21T10:50:52.219Z,100689.02
2022-10-21T10:53:33.584Z,100683.70
2022-10-21T10:56:08.210Z,100679.05
2022-10-21T10:58:38.508Z,100673.55
2022-10-21T11:01:10.849Z,100673.20
2022-10-21T11:03:42.669Z,100665.04
2022-10-21T11:06:17.831Z,100657.57
2022-10-21T11:08:48.154Z,100659.79
2022-10-21T11:11:22.646Z,100663.63
2022-10-21T11:13:50.404Z,100660.14
2022-10-21T11:16:59.682Z,100656.52
2022-10-21T11:19:47.321Z,100658.13
2022-10-21T11:22:38.797Z,100660.09
2022-10-21T11:25:14.439Z,100658.80
2022-10-21T11:27:54.153Z,100653.22
2022-10-21T11:30:23.631Z,100647.06
2022-10-21T11:32:54.094Z,100643.16
2022-10-21T11:35:38.196Z,100640.98
2022-10-21T11:38:17.930Z,100635.52
2022-10-21T11:40:45.562Z,100614.08
2022-10-21T11:43:22.527Z,100615.02
2022-10-21T11:45:56.485Z,100615.67
2022-10-21T11:48:42.870Z,100620.90
2022-10-21T11:51:22.998Z,100624.40
2022-10-21T11:54:09.594Z,100626.05
2022-10-21T11:56:58.907Z,100625.62
2022-10-21T11:59:26.609Z,100626.23
2022-10-21T12:02:00.746Z,100620.98
2022-10-21T12:04:34.719Z,100616.41
2022-10-21T12:07:12.298Z,100614.17
2022-10-21T12:09:45.981Z,100607.42
2022-10-21T12:12:16.791Z,100609.79
2022-10-21T12:14:55.756Z,100605.29
2022-10-21T12:17:24.587Z,100607.45
2022-10-21T12:19:57.965Z,100612.43
2022-10-21T12:22:26.809Z,100613.92
2022-10-21T12:25:12.712Z,100610.29
2022-10-21T12:27:45.633Z,100596.20
2022-10-21T12:30:22.154Z,100580.42
2022-10-21T12:32:55.666Z,100575.07
2022-10-21T12:35:45.604Z,100576.33
2022-10-21T12:38:42.930Z,100577.89
2022-10-21T12:41:29.660Z,100577.98
2022-10-21T12:44:00.899Z,100584.10
2022-10-21T12:46:30.468Z,100582.82
2022-10-21T12:49:01.312Z,100578.73
2022-10-21T12:51:34.699Z,100580.77
2022-10-21T12:54:02.302Z,100582.95
2022-10-21T12:56:50.225Z,100575.92
2022-10-21T12:59:30.233Z,100566.92
2022-10-21T13:02:08.066Z,100563.92
2022-10-21T13:04:36.138Z,100563.05
2022-10-21T13:07:15.954Z,100564.14
2022-10-21T13:10:06.168Z,100565.65
2022-10-21T13:12:33.896Z,100566.30
2022-10-21T13:15:05.633Z,100567.88
2022-10-21T13:17:49.230Z,100572.92
2022-10-21T13:20:19.893Z,100573.88
2022-10-21T13:22:49.585Z,100579.86
2022-10-21T13:25:20.383Z,100578.86
2022-10-21T13:27:51.684Z,100575.95
2022-10-21T13:30:26.752Z,100579.77
2022-10-21T13:33:02.248Z,100580.18
2022-10-21T13:35:36.814Z,100575.64
2022-10-21T13:38:24.912Z,100573.05
2022-10-21T13:41:03.058Z,100565.55
2022-10-21T13:43:39.563Z,100559.91
2022-10-21T13:46:07.357Z,100557.00
2022-10-21T13:48:42.830Z,100562.02
2022-10-21T13:51:16.768Z,100572.38
2022-10-21T13:53:46.121Z,100584.71
2022-10-21T13:56:21.926Z,100589.77
2022-10-21T13:58:49.600Z,100594.45
2022-10-21T14:01:20.313Z,100588.84
2022-10-21T14:06:30.739Z,100580.93
2022-10-21T14:09:04.376Z,100592.59
2022-10-21T14:11:42.130Z,100592.10
2022-10-21T14:14:11.175Z,100586.98
2022-10-21T14:16:40.527Z,100586.35
2022-10-21T14:19:09.921Z,100587.69
2022-10-21T14:21:38.658Z,100580.90
2022-10-21T14:24:06.555Z,100579.59
2022-10-21T14:26:34.306Z,100574.30
2022-10-21T14:29:02.563Z,100571.16
2022-10-21T14:31:30.385Z,100572.40
2022-10-21T14:33:58.212Z,100575.27
2022-10-21T14:36:27.909Z,100575.14
2022-10-21T14:38:55.563Z,100572.31
2022-10-21T14:41:25.746Z,100574.45
2022-10-21T14:43:54.720Z,100572.86
2022-10-21T14:46:22.491Z,100575.92
2022-10-21T14:48:53.794Z,100578.70
2022-10-21T14:51:22.900Z,100572.44
2022-10-21T14:53:58.773Z,100572.25
2022-10-21T14:56:33.158Z,100570.12
2022-10-21T14:59:03.360Z,100569.67
2022-10-21T15:01:31.040Z,100566.12
2022-10-21T15:04:00.005Z,100564.04
2022-10-21T15:06:29.491Z,100558.41
2022-10-21T15:08:57.727Z,100557.69
2022-10-21T15:11:25.623Z,100556.92
2022-10-21T15:14:04.810Z,100556.52
2022-10-21T15:19:06.968Z,100553.92
2022-10-21T15:21:46.456Z,100558.81
2022-10-21T15:24:17.894Z,100554.84
2022-10-21T15:26:47.198Z,100554.40
2022-10-21T15:29:23.020Z,100556.92
2022-10-21T15:31:53.265Z,100556.18
2022-10-21T15:34:21.074Z,100553.13
2022-10-21T15:36:48.689Z,100553.23
2022-10-21T15:39:16.318Z,100554.05
2022-10-21T15:41:44.406Z,100556.15
2022-10-21T15:44:18.160Z,100552.73
2022-10-21T15:46:46.917Z,100552.27
2022-10-21T15:49:19.792Z,100551.26
2022-10-21T15:51:48.206Z,100550.48
2022-10-21T15:54:17.142Z,100546.98
2022-10-21T15:56:46.470Z,100545.20
2022-10-21T15:59:24.844Z,100546.88
2022-10-21T16:01:53.167Z,100548.05
2022-10-21T16:04:20.963Z,100549.90
2022-10-21T16:06:49.733Z,100545.80
2022-10-21T16:09:20.510Z,100541.39
2022-10-21T16:11:58.967Z,100544.80
2022-10-21T16:14:30.042Z,100544.42
2022-10-21T16:16:59.287Z,100538.15
2022-10-21T16:19:28.574Z,100539.40
2022-10-21T16:21:56.647Z,100532.77
2022-10-21T16:24:24.442Z,100538.89
2022-10-21T16:26:52.163Z,100538.96
2022-10-21T16:29:23.793Z,100533.77
2022-10-21T16:31:51.839Z,100531.59
2022-10-21T16:34:19.630Z,100531.06
2022-10-21T16:36:47.584Z,100528.52
2022-10-21T16:39:17.607Z,100526.44
2022-10-21T16:41:45.840Z,100525.50
2022-10-21T16:44:14.034Z,100526.73
2022-10-21T16:46:43.981Z,100523.08
2022-10-21T16:49:13.216Z,100521.70
2022-10-21T16:51:42.124Z,100519.06
2022-10-21T16:54:10.618Z,100516.31
2022-10-21T16:56:38.502Z,100512.02
2022-10-21T16:59:07.215Z,100511.98
2022-10-21T17:01:34.948Z,100507.20
2022-10-21T17:04:02.914Z,100506.48
2022-10-21T17:06:30.738Z,100501.94
2022-10-21T17:08:58.504Z,100498.08
2022-10-21T17:11:29.594Z,100497.34
2022-10-21T17:13:57.278Z,100495.70
2022-10-21T17:16:24.903Z,100492.14
2022-10-21T17:18:52.526Z,100488.59
2022-10-21T17:21:25.053Z,100487.86
2022-10-21T17:23:53.149Z,100482.39
2022-10-21T17:26:21.028Z,100481.80
2022-10-21T17:28:49.230Z,100479.14
2022-10-21T17:31:18.865Z,100481.95
2022-10-21T17:33:47.290Z,100477.16
2022-10-21T17:36:15.345Z,100477.58
2022-10-21T17:38:43.269Z,100477.23
2022-10-21T17:41:12.004Z,100476.31
2022-10-21T17:43:39.700Z,100475.89
2022-10-21T17:46:07.421Z,100479.55
2022-10-21T17:48:35.057Z,100475.27
2022-10-21T17:51:02.765Z,100472.64
2022-10-21T17:53:31.007Z,100473.19
2022-10-21T17:55:59.632Z,100470.48
2022-10-21T17:58:27.926Z,100474.45
2022-10-21T18:00:58.851Z,100479.89
2022-10-21T18:03:27.755Z,100487.85
2022-10-21T18:05:56.307Z,100493.72
2022-10-21T18:08:24.150Z,100497.52
2022-10-21T18:10:55.811Z,100502.55
2022-10-21T18:13:24.325Z,100505.02
2022-10-21T18:15:52.427Z,100507.46
2022-10-21T18:18:21.619Z,100503.48
2022-10-21T18:20:49.367Z,100503.81
2022-10-21T18:23:17.639Z,100505.75
2022-10-21T18:25:45.311Z,100505.47
2022-10-21T18:28:13.010Z,100504.98
2022-10-21T18:30:42.484Z,100506.39
2022-10-21T18:33:10.589Z,100503.94
2022-10-21T18:35:38.282Z,100505.16
2022-10-21T18:38:05.989Z,100511.64
2022-10-21T18:40:33.672Z,100512.95
2022-10-21T18:43:01.380Z,100508.95
2022-10-21T18:45:29.089Z,100507.34
2022-10-21T18:47:56.831Z,100506.14
2022-10-21T18:50:24.811Z,100511.11
2022-10-21T18:52:52.532Z,100510.75
2022-10-21T18:55:20.191Z,100513.23
2022-10-21T18:57:48.003Z,100512.80
2022-10-21T19:00:15.783Z,100513.73
2022-10-21T19:02:43.560Z,100517.09
2022-10-21T19:05:11.259Z,100521.51
2022-10-21T19:07:39.238Z,100518.70
2022-10-21T19:10:07.455Z,100521.07
2022-10-21T19:12:35.149Z,100519.98
2022-10-21T19:15:02.881Z,100522.49
2022-10-21T19:17:30.654Z,100527.29
2022-10-21T19:20:00.823Z,100522.17
2022-10-21T19:25:01.420Z,100518.14
2022-10-21T19:27:29.108Z,100519.54
2022-10-21T19:29:56.786Z,100515.92
2022-10-21T19:32:24.512Z,100517.66
2022-10-21T19:34:52.244Z,100514.48
2022-10-21T19:37:19.929Z,100523.04
2022-10-21T19:39:47.581Z,100524.58
2022-10-21T19:42:15.376Z,100521.66
2022-10-21T19:44:43.066Z,100522.65
2022-10-21T19:47:10.830Z,100523.90
2022-10-21T19:49:38.724Z,100528.20
2022-10-21T19:52:06.543Z,100529.61
2022-10-21T19:54:34.305Z,100531.15
2022-10-21T19:57:02.185Z,100530.41
2022-10-21T19:59:30.069Z,100529.06
2022-10-21T20:01:57.989Z,100528.51
2022-10-21T20:04:25.826Z,100533.33
2022-10-21T20:06:53.559Z,100530.14
2022-10-21T20:09:21.660Z,100535.56
2022-10-21T20:11:49.557Z,100536.10
2022-10-21T20:14:17.386Z,100537.86
2022-10-21T20:16:48.292Z,100535.84
2022-10-21T20:19:15.965Z,100534.77
2022-10-21T20:21:43.746Z,100535.36
2022-10-21T20:24:13.880Z,100531.16
2022-10-21T20:26:49.213Z,100528.41
2022-10-21T20:29:18.738Z,100529.68
2022-10-21T20:31:46.511Z,100528.58
2022-10-21T20:34:14.239Z,100525.30
2022-10-21T20:36:42.031Z,100527.41
2022-10-21T20:39:10.611Z,100531.00
2022-10-21T20:41:38.753Z,100528.45
2022-10-21T20:44:08.583Z,100523.86
2022-10-21T20:46:36.445Z,100524.79
2022-10-21T20:49:05.505Z,100527.77
2022-10-21T20:51:34.258Z,100521.75
2022-10-21T20:54:03.635Z,100520.40
2022-10-21T20:56:36.438Z,100515.81
2022-10-21T20:59:05.317Z,100515.27
2022-10-21T21:01:34.498Z,100514.25
2022-10-21T21:04:08.414Z,100509.21
2022-10-21T21:06:40.414Z,100510.84
2022-10-21T21:09:33.610Z,100511.25
2022-10-21T21:11:55.844Z,100504.69
2022-10-21T21:14:23.514Z,100507.30
2022-10-21T21:16:51.191Z,100510.06
2022-10-21T21:19:20.834Z,100510.09
2022-10-21T21:21:48.517Z,100510.02
2022-10-21T21:24:16.150Z,100509.83
2022-10-21T21:26:44.085Z,100505.35
2022-10-21T21:29:12.283Z,100504.14
2022-10-21T21:31:40.457Z,100504.64
2022-10-21T21:34:08.963Z,100501.36
2022-10-21T21:36:37.008Z,100496.29
2022-10-21T21:39:06.259Z,100494.75
2022-10-21T21:41:34.926Z,100490.11
2022-10-21T21:44:04.109Z,100484.37
2022-10-21T21:46:32.096Z,100478.74
2022-10-21T21:49:05.179Z,100478.34
2022-10-21T21:51:35.287Z,100472.40
2022-10-21T21:54:04.138Z,100471.40
2022-10-21T21:56:32.011Z,100469.67
2022-10-21T21:58:59.745Z,100466.58
2022-10-21T22:01:29.264Z,100461.99
2022-10-21T22:03:57.734Z,100464.66
2022-10-21T22:08:59.623Z,100464.35
2022-10-21T22:11:29.506Z,100466.00
2022-10-21T22:13:57.972Z,100462.91
2022-10-21T22:16:30.272Z,100466.45
2022-10-21T22:19:00.312Z,100466.72
2022-10-21T22:21:29.049Z,100468.63
2022-10-21T22:23:56.876Z,100477.97
2022-10-21T22:26:26.975Z,100472.81
2022-10-21T22:28:55.014Z,100470.12
2022-10-21T22:31:28.908Z,100470.98
2022-10-21T22:34:00.786Z,100469.49
2022-10-21T22:36:28.672Z,100472.85
2022-10-21T22:38:56.999Z,100471.35
2022-10-21T22:41:25.162Z,100468.84
2022-10-21T22:43:52.821Z,100466.41
2022-10-21T22:46:32.907Z,100464.68
2022-10-21T22:49:02.926Z,100458.20
2022-10-21T22:51:31.179Z,100457.99
2022-10-21T22:53:58.912Z,100459.47
2022-10-21T22:56:27.896Z,100457.25
2022-10-21T22:58:57.280Z,100454.55
2022-10-21T23:01:29.061Z,100450.13
2022-10-21T23:03:58.080Z,100452.84
2022-10-21T23:06:25.887Z,100450.16
2022-10-21T23:08:53.532Z,100447.35
2022-10-21T23:11:21.206Z,100449.65
2022-10-21T23:14:02.101Z,100442.73
2022-10-21T23:16:31.578Z,100446.78
2022-10-21T23:18:59.763Z,100441.73
2022-10-21T23:21:27.995Z,100444.52
2022-10-21T23:23:55.894Z,100446.58
2022-10-21T23:26:23.587Z,100445.23
2022-10-21T23:28:51.229Z,100446.52
2022-10-21T23:31:19.817Z,100441.08
2022-10-21T23:33:47.424Z,100439.88
2022-10-21T23:36:15.061Z,100442.26
2022-10-21T23:38:42.668Z,100439.52
2022-10-21T23:41:10.337Z,100437.63
2022-10-21T23:43:38.314Z,100437.98
2022-10-21T23:46:06.950Z,100434.11
2022-10-21T23:48:34.592Z,100440.53
2022-10-21T23:51:02.273Z,100443.78
2022-10-21T23:53:30.002Z,100455.20
2022-10-21T23:55:57.871Z,100453.09
2022-10-21T23:58:25.528Z,100457.87
